sensor_id;sensor_type;location;lat;lon;timestamp;pressure;altitude;pressure_sealevel;temperature;humidity
52441;BME280;39611;46.062;8.950;2023-02-01T00:00:11;96865.72;;;2.99;53.96
52441;BME280;39611;46.062;8.950;2023-02-01T00:02:38;96859.28;;;3.20;53.83
52441;BME280;39611;46.062;8.950;2023-02-01T00:05:08;96859.69;;;2.99;54.26
52441;BME280;39611;46.062;8.950;2023-02-01T00:07:36;96859.75;;;3.11;53.56
52441;BME280;39611;46.062;8.950;2023-02-01T00:10:04;96855.91;;;3.13;53.95
52441;BME280;39611;46.062;8.950;2023-02-01T00:12:31;96847.88;;;3.15;54.40
52441;BME280;39611;46.062;8.950;2023-02-01T00:14:58;96849.63;;;3.21;54.51
52441;BME280;39611;46.062;8.950;2023-02-01T00:17:24;96851.91;;;3.11;54.60
52441;BME280;39611;46.062;8.950;2023-02-01T00:19:51;96849.69;;;3.14;54.53
52441;BME280;39611;46.062;8.950;2023-02-01T00:22:17;96847.22;;;3.19;54.28
52441;BME280;39611;46.062;8.950;2023-02-01T00:24:44;96846.78;;;3.22;53.96
52441;BME280;39611;46.062;8.950;2023-02-01T00:27:10;96852.66;;;3.18;54.21
52441;BME280;39611;46.062;8.950;2023-02-01T00:29:37;96848.69;;;3.34;53.00
52441;BME280;39611;46.062;8.950;2023-02-01T00:32:03;96843.00;;;3.37;53.52
52441;BME280;39611;46.062;8.950;2023-02-01T00:34:30;96835.28;;;3.05;54.86
52441;BME280;39611;46.062;8.950;2023-02-01T00:36:56;96840.25;;;3.32;53.22
52441;BME280;39611;46.062;8.950;2023-02-01T00:39:23;96837.06;;;3.30;53.38
52441;BME280;39611;46.062;8.950;2023-02-01T00:41:49;96843.91;;;2.87;54.13
52441;BME280;39611;46.062;8.950;2023-02-01T00:44:16;96837.34;;;3.21;53.29
52441;BME280;39611;46.062;8.950;2023-02-01T00:46:42;96843.63;;;2.95;54.58
52441;BME280;39611;46.062;8.950;2023-02-01T00:49:09;96838.19;;;2.97;53.72
52441;BME280;39611;46.062;8.950;2023-02-01T00:51:35;96837.78;;;3.18;53.82
52441;BME280;39611;46.062;8.950;2023-02-01T00:54:02;96835.56;;;2.97;55.12
52441;BME280;39611;46.062;8.950;2023-02-01T00:56:29;96837.59;;;2.95;55.11
52441;BME280;39611;46.062;8.950;2023-02-01T00:58:56;96837.03;;;3.11;54.30
52441;BME280;39611;46.062;8.950;2023-02-01T01:01:25;96840.22;;;3.13;54.64
52441;BME280;39611;46.062;8.950;2023-02-01T01:03:55;96844.16;;;3.04;55.44
52441;BME280;39611;46.062;8.950;2023-02-01T01:06:27;96832.25;;;3.08;55.51
52441;BME280;39611;46.062;8.950;2023-02-01T01:08:55;96836.03;;;3.12;55.83
52441;BME280;39611;46.062;8.950;2023-02-01T01:11:24;96832.41;;;3.13;55.91
52441;BME280;39611;46.062;8.950;2023-02-01T01:13:53;96832.75;;;2.98;56.45
52441;BME280;39611;46.062;8.950;2023-02-01T01:16:20;96834.06;;;3.08;54.88
52441;BME280;39611;46.062;8.950;2023-02-01T01:18:48;96836.19;;;3.36;53.98
52441;BME280;39611;46.062;8.950;2023-02-01T01:21:16;96830.88;;;3.24;55.11
52441;BME280;39611;46.062;8.950;2023-02-01T01:23:43;96838.47;;;2.89;56.44
52441;BME280;39611;46.062;8.950;2023-02-01T01:26:13;96836.22;;;2.92;56.59
52441;BME280;39611;46.062;8.950;2023-02-01T01:28:40;96832.47;;;3.06;56.05
52441;BME280;39611;46.062;8.950;2023-02-01T01:31:11;96836.53;;;3.02;56.64
52441;BME280;39611;46.062;8.950;2023-02-01T01:33:38;96839.84;;;2.91;57.43
52441;BME280;39611;46.062;8.950;2023-02-01T01:36:06;96827.88;;;3.02;57.50
52441;BME280;39611;46.062;8.950;2023-02-01T01:38:34;96833.28;;;3.07;57.05
52441;BME280;39611;46.062;8.950;2023-02-01T01:41:01;96832.41;;;3.13;56.62
52441;BME280;39611;46.062;8.950;2023-02-01T01:43:46;96835.59;;;3.15;56.65
52441;BME280;39611;46.062;8.950;2023-02-01T01:46:18;96834.13;;;3.01;56.72
52441;BME280;39611;46.062;8.950;2023-02-01T01:48:51;96828.19;;;3.12;56.19
52441;BME280;39611;46.062;8.950;2023-02-01T01:51:23;96829.41;;;2.91;57.65
52441;BME280;39611;46.062;8.950;2023-02-01T01:54:14;96835.38;;;2.98;57.36
52441;BME280;39611;46.062;8.950;2023-02-01T01:56:46;96822.63;;;2.83;58.82
52441;BME280;39611;46.062;8.950;2023-02-01T01:59:15;96830.47;;;2.83;58.38
52441;BME280;39611;46.062;8.950;2023-02-01T02:01:42;96820.13;;;2.70;58.06
52441;BME280;39611;46.062;8.950;2023-02-01T02:04:08;96819.06;;;2.78;58.07
52441;BME280;39611;46.062;8.950;2023-02-01T02:07:11;96820.91;;;2.96;56.92
52441;BME280;39611;46.062;8.950;2023-02-01T02:09:39;96824.09;;;2.98;57.37
52441;BME280;39611;46.062;8.950;2023-02-01T02:12:13;96823.59;;;3.08;56.48
52441;BME280;39611;46.062;8.950;2023-02-01T02:14:39;96816.09;;;2.93;57.84
52441;BME280;39611;46.062;8.950;2023-02-01T02:20:01;96817.88;;;3.17;56.77
52441;BME280;39611;46.062;8.950;2023-02-01T02:22:40;96812.72;;;3.11;56.31
52441;BME280;39611;46.062;8.950;2023-02-01T02:25:38;96811.34;;;3.08;57.01
52441;BME280;39611;46.062;8.950;2023-02-01T02:37:23;96806.88;;;2.90;57.45
52441;BME280;39611;46.062;8.950;2023-02-01T02:40:04;96804.50;;;2.89;58.26
52441;BME280;39611;46.062;8.950;2023-02-01T02:42:49;96800.13;;;2.82;58.14
52441;BME280;39611;46.062;8.950;2023-02-01T02:45:38;96798.56;;;3.00;57.56
52441;BME280;39611;46.062;8.950;2023-02-01T02:48:47;96796.44;;;2.90;57.54
52441;BME280;39611;46.062;8.950;2023-02-01T02:54:13;96796.56;;;2.95;57.95
52441;BME280;39611;46.062;8.950;2023-02-01T02:57:02;96793.66;;;2.85;58.15
52441;BME280;39611;46.062;8.950;2023-02-01T02:59:48;96790.28;;;3.03;57.55
52441;BME280;39611;46.062;8.950;2023-02-01T03:02:34;96784.97;;;2.91;58.33
52441;BME280;39611;46.062;8.950;2023-02-01T03:05:19;96783.81;;;3.05;57.52
52441;BME280;39611;46.062;8.950;2023-02-01T03:21:11;96792.88;;;2.84;58.05
52441;BME280;39611;46.062;8.950;2023-02-01T03:23:40;96786.56;;;2.92;57.87
52441;BME280;39611;46.062;8.950;2023-02-01T03:26:11;96784.84;;;2.61;59.19
52441;BME280;39611;46.062;8.950;2023-02-01T03:28:48;96784.41;;;2.64;59.03
52441;BME280;39611;46.062;8.950;2023-02-01T03:31:18;96784.88;;;2.79;58.58
52441;BME280;39611;46.062;8.950;2023-02-01T03:33:45;96786.91;;;2.77;58.79
52441;BME280;39611;46.062;8.950;2023-02-01T03:36:26;96773.41;;;2.62;59.57
52441;BME280;39611;46.062;8.950;2023-02-01T03:39:30;96780.53;;;2.73;59.18
52441;BME280;39611;46.062;8.950;2023-02-01T03:42:01;96776.84;;;2.56;59.55
52441;BME280;39611;46.062;8.950;2023-02-01T03:49:29;96781.34;;;2.67;58.91
52441;BME280;39611;46.062;8.950;2023-02-01T03:51:59;96774.97;;;2.63;59.00
52441;BME280;39611;46.062;8.950;2023-02-01T03:54:37;96769.69;;;2.70;58.56
52441;BME280;39611;46.062;8.950;2023-02-01T03:57:08;96781.41;;;2.86;58.00
52441;BME280;39611;46.062;8.950;2023-02-01T03:59:42;96780.03;;;2.83;58.51
52441;BME280;39611;46.062;8.950;2023-02-01T04:02:09;96777.97;;;2.67;58.85
52441;BME280;39611;46.062;8.950;2023-02-01T04:04:37;96779.78;;;2.66;57.74
52441;BME280;39611;46.062;8.950;2023-02-01T04:07:04;96779.59;;;2.86;57.48
52441;BME280;39611;46.062;8.950;2023-02-01T04:09:30;96781.50;;;2.72;58.46
52441;BME280;39611;46.062;8.950;2023-02-01T04:11:57;96785.00;;;2.66;58.67
52441;BME280;39611;46.062;8.950;2023-02-01T04:14:23;96780.28;;;2.75;58.04
52441;BME280;39611;46.062;8.950;2023-02-01T04:16:50;96788.66;;;2.83;57.46
52441;BME280;39611;46.062;8.950;2023-02-01T04:19:16;96784.94;;;2.73;58.72
52441;BME280;39611;46.062;8.950;2023-02-01T04:21:43;96790.19;;;2.48;59.61
52441;BME280;39611;46.062;8.950;2023-02-01T04:24:09;96787.75;;;2.71;58.20
52441;BME280;39611;46.062;8.950;2023-02-01T04:26:36;96791.34;;;2.77;57.78
52441;BME280;39611;46.062;8.950;2023-02-01T04:29:03;96797.03;;;2.67;57.72
52441;BME280;39611;46.062;8.950;2023-02-01T04:31:29;96797.41;;;2.71;56.57
52441;BME280;39611;46.062;8.950;2023-02-01T04:33:56;96801.84;;;2.70;57.10
52441;BME280;39611;46.062;8.950;2023-02-01T04:36:25;96801.19;;;2.75;57.54
52441;BME280;39611;46.062;8.950;2023-02-01T04:38:52;96799.91;;;2.59;57.88
52441;BME280;39611;46.062;8.950;2023-02-01T04:41:19;96794.97;;;2.76;57.32
52441;BME280;39611;46.062;8.950;2023-02-01T04:43:47;96797.69;;;2.62;58.21
52441;BME280;39611;46.062;8.950;2023-02-01T04:46:14;96793.13;;;2.58;57.98
52441;BME280;39611;46.062;8.950;2023-02-01T04:48:41;96793.75;;;2.78;57.20
52441;BME280;39611;46.062;8.950;2023-02-01T04:51:08;96792.09;;;2.59;57.89
52441;BME280;39611;46.062;8.950;2023-02-01T04:53:36;96789.94;;;2.74;56.43
52441;BME280;39611;46.062;8.950;2023-02-01T04:56:02;96788.28;;;2.80;55.82
52441;BME280;39611;46.062;8.950;2023-02-01T04:58:29;96783.78;;;2.69;56.77
52441;BME280;39611;46.062;8.950;2023-02-01T05:00:55;96784.88;;;2.79;56.57
52441;BME280;39611;46.062;8.950;2023-02-01T05:03:22;96791.16;;;2.72;56.38
52441;BME280;39611;46.062;8.950;2023-02-01T05:05:49;96793.69;;;2.60;57.53
52441;BME280;39611;46.062;8.950;2023-02-01T05:08:15;96783.78;;;2.69;56.96
52441;BME280;39611;46.062;8.950;2023-02-01T05:10:42;96791.09;;;2.60;57.17
52441;BME280;39611;46.062;8.950;2023-02-01T05:13:09;96797.47;;;2.64;56.54
52441;BME280;39611;46.062;8.950;2023-02-01T05:15:54;96789.75;;;2.51;57.54
52441;BME280;39611;46.062;8.950;2023-02-01T05:18:21;96789.31;;;2.54;56.71
52441;BME280;39611;46.062;8.950;2023-02-01T05:20:47;96786.97;;;2.71;55.52
52441;BME280;39611;46.062;8.950;2023-02-01T05:23:14;96788.78;;;2.70;56.14
52441;BME280;39611;46.062;8.950;2023-02-01T05:25:40;96782.19;;;2.68;56.17
52441;BME280;39611;46.062;8.950;2023-02-01T05:28:07;96782.06;;;2.56;56.88
52441;BME280;39611;46.062;8.950;2023-02-01T05:41:15;96776.75;;;2.44;54.71
52441;BME280;39611;46.062;8.950;2023-02-01T05:43:44;96779.13;;;2.71;53.93
52441;BME280;39611;46.062;8.950;2023-02-01T05:46:11;96782.38;;;2.66;54.73
52441;BME280;39611;46.062;8.950;2023-02-01T05:48:39;96782.59;;;2.65;55.42
52441;BME280;39611;46.062;8.950;2023-02-01T05:51:07;96784.53;;;2.51;56.44
52441;BME280;39611;46.062;8.950;2023-02-01T05:53:33;96778.38;;;2.38;55.93
52441;BME280;39611;46.062;8.950;2023-02-01T05:56:00;96789.34;;;2.72;54.89
52441;BME280;39611;46.062;8.950;2023-02-01T05:58:27;96783.78;;;2.44;57.01
52441;BME280;39611;46.062;8.950;2023-02-01T06:00:53;96783.94;;;2.49;56.07
52441;BME280;39611;46.062;8.950;2023-02-01T06:03:19;96784.38;;;2.46;56.82
52441;BME280;39611;46.062;8.950;2023-02-01T06:05:47;96783.47;;;2.58;55.80
52441;BME280;39611;46.062;8.950;2023-02-01T06:08:14;96778.47;;;2.57;56.33
52441;BME280;39611;46.062;8.950;2023-02-01T06:10:40;96777.47;;;2.76;55.69
52441;BME280;39611;46.062;8.950;2023-02-01T06:13:07;96787.38;;;2.49;56.07
52441;BME280;39611;46.062;8.950;2023-02-01T06:15:34;96783.78;;;2.44;53.56
52441;BME280;39611;46.062;8.950;2023-02-01T06:18:01;96780.53;;;2.73;53.16
52441;BME280;39611;46.062;8.950;2023-02-01T06:20:27;96788.53;;;2.53;53.91
52441;BME280;39611;46.062;8.950;2023-02-01T06:22:54;96785.31;;;2.76;53.78
52441;BME280;39611;46.062;8.950;2023-02-01T06:25:21;96775.28;;;2.73;54.07
52441;BME280;39611;46.062;8.950;2023-02-01T06:27:47;96778.41;;;2.82;54.10
52441;BME280;39611;46.062;8.950;2023-02-01T06:30:14;96785.25;;;2.83;54.60
52441;BME280;39611;46.062;8.950;2023-02-01T06:32:41;96785.03;;;2.84;53.88
52441;BME280;39611;46.062;8.950;2023-02-01T06:35:08;96797.66;;;2.88;54.02
52441;BME280;39611;46.062;8.950;2023-02-01T06:37:37;96794.47;;;2.86;53.81
52441;BME280;39611;46.062;8.950;2023-02-01T06:40:04;96788.84;;;2.63;53.79
52441;BME280;39611;46.062;8.950;2023-02-01T06:42:30;96796.94;;;2.80;53.94
52441;BME280;39611;46.062;8.950;2023-02-01T06:44:57;96805.69;;;2.43;55.42
52441;BME280;39611;46.062;8.950;2023-02-01T06:47:23;96803.38;;;2.28;54.80
52441;BME280;39611;46.062;8.950;2023-02-01T06:49:50;96809.53;;;2.40;56.17
52441;BME280;39611;46.062;8.950;2023-02-01T06:52:16;96812.84;;;2.22;56.80
52441;BME280;39611;46.062;8.950;2023-02-01T06:54:42;96813.25;;;2.51;55.15
52441;BME280;39611;46.062;8.950;2023-02-01T06:57:09;96809.31;;;2.42;55.55
52441;BME280;39611;46.062;8.950;2023-02-01T06:59:35;96799.53;;;2.62;54.93
52441;BME280;39611;46.062;8.950;2023-02-01T07:02:02;96809.31;;;2.42;55.63
52441;BME280;39611;46.062;8.950;2023-02-01T07:04:28;96803.97;;;2.30;55.15
52441;BME280;39611;46.062;8.950;2023-02-01T07:06:55;96817.03;;;2.30;56.19
52441;BME280;39611;46.062;8.950;2023-02-01T07:09:21;96812.34;;;2.07;56.72
52441;BME280;39611;46.062;8.950;2023-02-01T07:11:47;96817.22;;;2.28;55.38
52441;BME280;39611;46.062;8.950;2023-02-01T07:14:14;96820.22;;;2.00;57.01
52441;BME280;39611;46.062;8.950;2023-02-01T07:16:40;96830.25;;;2.35;55.17
52441;BME280;39611;46.062;8.950;2023-02-01T07:19:07;96835.00;;;2.45;55.25
52441;BME280;39611;46.062;8.950;2023-02-01T07:21:33;96823.19;;;2.35;56.60
52441;BME280;39611;46.062;8.950;2023-02-01T07:24:00;96825.47;;;2.25;56.30
52441;BME280;39611;46.062;8.950;2023-02-01T07:26:26;96837.09;;;2.29;56.13
52441;BME280;39611;46.062;8.950;2023-02-01T07:28:53;96838.44;;;2.38;54.59
52441;BME280;39611;46.062;8.950;2023-02-01T07:31:19;96842.56;;;2.53;54.02
52441;BME280;39611;46.062;8.950;2023-02-01T07:33:48;96847.25;;;2.69;53.97
52441;BME280;39611;46.062;8.950;2023-02-01T07:36:18;96837.34;;;2.53;55.39
52441;BME280;39611;46.062;8.950;2023-02-01T07:38:45;96837.50;;;2.58;55.09
52441;BME280;39611;46.062;8.950;2023-02-01T07:41:13;96832.81;;;2.42;56.37
52441;BME280;39611;46.062;8.950;2023-02-01T07:43:39;96836.16;;;2.24;57.19
52441;BME280;39611;46.062;8.950;2023-02-01T07:46:07;96839.13;;;2.27;56.44
52441;BME280;39611;46.062;8.950;2023-02-01T07:48:34;96838.50;;;2.32;56.33
52441;BME280;39611;46.062;8.950;2023-02-01T07:53:32;96837.47;;;2.33;58.56
52441;BME280;39611;46.062;8.950;2023-02-01T07:55:59;96836.94;;;2.24;57.78
52441;BME280;39611;46.062;8.950;2023-02-01T07:58:26;96834.25;;;2.37;56.93
52441;BME280;39611;46.062;8.950;2023-02-01T08:00:54;96842.53;;;2.59;56.11
52441;BME280;39611;46.062;8.950;2023-02-01T08:03:39;96849.38;;;2.54;56.93
52441;BME280;39611;46.062;8.950;2023-02-01T08:06:06;96856.25;;;2.48;57.48
52441;BME280;39611;46.062;8.950;2023-02-01T08:08:33;96858.66;;;2.50;57.47
52441;BME280;39611;46.062;8.950;2023-02-01T08:11:01;96861.34;;;2.68;56.56
52441;BME280;39611;46.062;8.950;2023-02-01T08:13:28;96866.28;;;2.51;58.67
52441;BME280;39611;46.062;8.950;2023-02-01T08:15:59;96861.09;;;2.45;57.98
52441;BME280;39611;46.062;8.950;2023-02-01T08:18:26;96856.53;;;2.65;57.08
52441;BME280;39611;46.062;8.950;2023-02-01T08:20:53;96864.88;;;2.80;56.38
52441;BME280;39611;46.062;8.950;2023-02-01T08:23:21;96857.97;;;2.61;57.46
52441;BME280;39611;46.062;8.950;2023-02-01T08:25:48;96856.47;;;2.72;56.43
52441;BME280;39611;46.062;8.950;2023-02-01T08:28:15;96855.41;;;2.79;56.99
52441;BME280;39611;46.062;8.950;2023-02-01T08:30:42;96851.13;;;2.85;57.00
52441;BME280;39611;46.062;8.950;2023-02-01T08:33:08;96858.50;;;2.95;57.42
52441;BME280;39611;46.062;8.950;2023-02-01T08:35:36;96861.34;;;2.93;57.31
52441;BME280;39611;46.062;8.950;2023-02-01T08:38:09;96864.44;;;2.83;57.70
52441;BME280;39611;46.062;8.950;2023-02-01T08:40:35;96855.59;;;3.03;56.53
52441;BME280;39611;46.062;8.950;2023-02-01T08:43:02;96863.31;;;3.16;56.65
52441;BME280;39611;46.062;8.950;2023-02-01T08:45:29;96864.03;;;3.05;57.53
52441;BME280;39611;46.062;8.950;2023-02-01T08:47:56;96860.25;;;3.01;58.09
52441;BME280;39611;46.062;8.950;2023-02-01T08:50:24;96865.38;;;3.14;57.67
52441;BME280;39611;46.062;8.950;2023-02-01T08:52:52;96858.41;;;3.26;57.36
52441;BME280;39611;46.062;8.950;2023-02-01T08:55:19;96856.38;;;3.28;57.30
52441;BME280;39611;46.062;8.950;2023-02-01T08:57:46;96871.56;;;3.38;56.60
52441;BME280;39611;46.062;8.950;2023-02-01T09:00:15;96865.16;;;3.34;57.04
52441;BME280;39611;46.062;8.950;2023-02-01T09:02:42;96863.88;;;3.43;55.87
52441;BME280;39611;46.062;8.950;2023-02-01T09:05:09;96863.44;;;3.46;55.46
52441;BME280;39611;46.062;8.950;2023-02-01T09:07:37;96870.69;;;3.63;55.29
52441;BME280;39611;46.062;8.950;2023-02-01T09:10:04;96870.47;;;3.64;55.40
52441;BME280;39611;46.062;8.950;2023-02-01T09:12:32;96874.47;;;3.67;55.36
52441;BME280;39611;46.062;8.950;2023-02-01T09:14:59;96865.75;;;3.73;54.16
52441;BME280;39611;46.062;8.950;2023-02-01T09:17:26;96877.25;;;3.72;54.76
52441;BME280;39611;46.062;8.950;2023-02-01T09:19:54;96873.66;;;3.85;54.34
52441;BME280;39611;46.062;8.950;2023-02-01T09:22:21;96866.97;;;3.89;54.04
52441;BME280;39611;46.062;8.950;2023-02-01T09:24:47;96873.38;;;3.93;53.78
52441;BME280;39611;46.062;8.950;2023-02-01T09:27:14;96860.34;;;4.05;54.83
52441;BME280;39611;46.062;8.950;2023-02-01T09:29:40;96863.47;;;3.95;52.84
52441;BME280;39611;46.062;8.950;2023-02-01T09:32:07;96860.59;;;4.15;52.15
52441;BME280;39611;46.062;8.950;2023-02-01T09:34:34;96862.53;;;4.20;51.21
52441;BME280;39611;46.062;8.950;2023-02-01T09:37:00;96858.59;;;4.29;52.53
52441;BME280;39611;46.062;8.950;2023-02-01T09:39:27;96853.16;;;4.42;50.94
52441;BME280;39611;46.062;8.950;2023-02-01T09:42:24;96859.44;;;4.41;50.86
52441;BME280;39611;46.062;8.950;2023-02-01T09:45:20;96858.66;;;4.52;50.48
52441;BME280;39611;46.062;8.950;2023-02-01T09:47:52;96860.16;;;4.60;50.83
52441;BME280;39611;46.062;8.950;2023-02-01T09:50:22;96867.44;;;4.58;50.71
52441;BME280;39611;46.062;8.950;2023-02-01T09:53:02;96866.78;;;4.63;50.08
52441;BME280;39611;46.062;8.950;2023-02-01T09:55:32;96861.44;;;4.81;49.38
52441;BME280;39611;46.062;8.950;2023-02-01T09:58:05;96863.06;;;4.94;49.42
52441;BME280;39611;46.062;8.950;2023-02-01T10:00:38;96861.59;;;5.10;48.79
52441;BME280;39611;46.062;8.950;2023-02-01T10:03:11;96872.88;;;5.10;48.56
52441;BME280;39611;46.062;8.950;2023-02-01T10:06:04;96863.84;;;5.18;48.01
52441;BME280;39611;46.062;8.950;2023-02-01T10:08:49;96878.13;;;5.22;47.80
52441;BME280;39611;46.062;8.950;2023-02-01T10:22:09;96872.03;;;5.57;47.87
52441;BME280;39611;46.062;8.950;2023-02-01T10:24:40;96882.31;;;5.58;47.94
52441;BME280;39611;46.062;8.950;2023-02-01T10:27:19;96878.66;;;5.71;47.17
52441;BME280;39611;46.062;8.950;2023-02-01T10:29:59;96870.97;;;5.81;47.37
52441;BME280;39611;46.062;8.950;2023-02-01T10:32:32;96879.41;;;5.83;48.19
52441;BME280;39611;46.062;8.950;2023-02-01T10:35:09;96873.44;;;5.88;48.46
52441;BME280;39611;46.062;8.950;2023-02-01T10:37:41;96866.28;;;5.95;47.67
52441;BME280;39611;46.062;8.950;2023-02-01T10:40:16;96863.38;;;6.08;46.48
52441;BME280;39611;46.062;8.950;2023-02-01T10:42:44;96855.56;;;5.97;46.85
52441;BME280;39611;46.062;8.950;2023-02-01T10:45:15;96861.63;;;6.14;46.63
52441;BME280;39611;46.062;8.950;2023-02-01T10:47:42;96846.16;;;6.29;45.07
52441;BME280;39611;46.062;8.950;2023-02-01T10:52:49;96848.88;;;6.34;46.33
52441;BME280;39611;46.062;8.950;2023-02-01T10:55:40;96840.50;;;6.38;47.27
52441;BME280;39611;46.062;8.950;2023-02-01T10:58:35;96836.69;;;6.45;46.26
52441;BME280;39611;46.062;8.950;2023-02-01T11:01:06;96847.06;;;6.52;46.17
52441;BME280;39611;46.062;8.950;2023-02-01T11:08:53;96833.84;;;6.81;46.15
52441;BME280;39611;46.062;8.950;2023-02-01T11:11:21;96822.47;;;6.75;46.79
52441;BME280;39611;46.062;8.950;2023-02-01T11:13:56;96819.50;;;6.88;46.64
52441;BME280;39611;46.062;8.950;2023-02-01T11:16:30;96823.81;;;6.94;47.06
52441;BME280;39611;46.062;8.950;2023-02-01T11:18:58;96814.88;;;6.95;46.67
52441;BME280;39611;46.062;8.950;2023-02-01T11:21:24;96803.84;;;7.15;46.93
52441;BME280;39611;46.062;8.950;2023-02-01T11:23:51;96792.44;;;7.49;46.39
52441;BME280;39611;46.062;8.950;2023-02-01T11:26:24;96801.69;;;7.29;47.46
52441;BME280;39611;46.062;8.950;2023-02-01T11:29:00;96798.72;;;7.26;47.97
52441;BME280;39611;46.062;8.950;2023-02-01T11:31:29;96800.25;;;7.43;46.42
52441;BME280;39611;46.062;8.950;2023-02-01T11:34:05;96790.84;;;7.48;46.79
52441;BME280;39611;46.062;8.950;2023-02-01T11:36:35;96795.25;;;7.42;47.66
52441;BME280;39611;46.062;8.950;2023-02-01T11:44:36;96796.19;;;7.53;47.65
52441;BME280;39611;46.062;8.950;2023-02-01T11:47:26;96789.31;;;7.52;47.78
52441;BME280;39611;46.062;8.950;2023-02-01T11:49:58;96789.69;;;7.60;48.04
52441;BME280;39611;46.062;8.950;2023-02-01T11:58:03;96767.06;;;7.86;47.59
52441;BME280;39611;46.062;8.950;2023-02-01T12:01:12;96765.44;;;7.85;47.25
52441;BME280;39611;46.062;8.950;2023-02-01T12:11:55;96747.94;;;8.01;45.33
52441;BME280;39611;46.062;8.950;2023-02-01T12:14:32;96765.06;;;7.99;45.69
52441;BME280;39611;46.062;8.950;2023-02-01T12:25:46;96737.19;;;8.35;41.36
52441;BME280;39611;46.062;8.950;2023-02-01T12:36:07;96737.44;;;8.66;41.80
52441;BME280;39611;46.062;8.950;2023-02-01T12:39:02;96730.00;;;8.58;42.07
52441;BME280;39611;46.062;8.950;2023-02-01T12:41:43;96721.50;;;8.50;42.18
52441;BME280;39611;46.062;8.950;2023-02-01T12:44:31;96722.34;;;8.99;38.36
52441;BME280;39611;46.062;8.950;2023-02-01T12:47:22;96718.72;;;8.67;40.87
52441;BME280;39611;46.062;8.950;2023-02-01T12:49:59;96706.03;;;10.21;25.61
52441;BME280;39611;46.062;8.950;2023-02-01T12:52:49;96706.47;;;9.67;32.91
52441;BME280;39611;46.062;8.950;2023-02-01T12:58:27;96693.81;;;9.63;34.33
52441;BME280;39611;46.062;8.950;2023-02-01T13:01:03;96700.41;;;9.71;32.37
52441;BME280;39611;46.062;8.950;2023-02-01T13:03:44;96681.41;;;9.79;27.89
52441;BME280;39611;46.062;8.950;2023-02-01T13:06:19;96684.53;;;9.56;28.23
52441;BME280;39611;46.062;8.950;2023-02-01T13:11:42;96684.34;;;10.09;23.11
52441;BME280;39611;46.062;8.950;2023-02-01T13:16:46;96681.72;;;10.34;23.69
52441;BME280;39611;46.062;8.950;2023-02-01T13:19:28;96684.88;;;10.26;23.85
52441;BME280;39611;46.062;8.950;2023-02-01T13:22:00;96682.00;;;10.33;22.71
52441;BME280;39611;46.062;8.950;2023-02-01T13:24:39;96675.09;;;10.42;22.96
52441;BME280;39611;46.062;8.950;2023-02-01T13:27:11;96672.47;;;10.42;22.12
52441;BME280;39611;46.062;8.950;2023-02-01T13:29:54;96680.66;;;10.25;22.67
52441;BME280;39611;46.062;8.950;2023-02-01T13:43:27;96665.28;;;10.58;20.30
52441;BME280;39611;46.062;8.950;2023-02-01T13:45:57;96667.69;;;10.54;21.61
52441;BME280;39611;46.062;8.950;2023-02-01T13:48:40;96660.00;;;10.47;21.15
52441;BME280;39611;46.062;8.950;2023-02-01T13:51:12;96657.09;;;10.54;20.38
52441;BME280;39611;46.062;8.950;2023-02-01T13:53:48;96661.88;;;10.32;21.54
52441;BME280;39611;46.062;8.950;2023-02-01T13:56:17;96655.25;;;10.49;20.27
52441;BME280;39611;46.062;8.950;2023-02-01T13:58:46;96649.69;;;10.61;20.22
52441;BME280;39611;46.062;8.950;2023-02-01T14:03:54;96676.41;;;10.49;20.85
52441;BME280;39611;46.062;8.950;2023-02-01T14:19:28;96677.19;;;10.60;20.68
52441;BME280;39611;46.062;8.950;2023-02-01T14:21:57;96683.28;;;10.56;20.94
52441;BME280;39611;46.062;8.950;2023-02-01T14:24:29;96684.84;;;10.67;20.74
52441;BME280;39611;46.062;8.950;2023-02-01T14:27:01;96688.78;;;10.90;20.02
52441;BME280;39611;46.062;8.950;2023-02-01T14:29:32;96692.00;;;10.77;20.82
52441;BME280;39611;46.062;8.950;2023-02-01T14:37:58;96681.09;;;10.83;20.75
52441;BME280;39611;46.062;8.950;2023-02-01T14:42:46;96683.22;;;10.81;20.65
52441;BME280;39611;46.062;8.950;2023-02-01T14:48:39;96693.00;;;10.86;20.85
52441;BME280;39611;46.062;8.950;2023-02-01T14:50:47;96682.75;;;10.69;20.74
52441;BME280;39611;46.062;8.950;2023-02-01T14:53:21;96687.16;;;10.89;21.08
52441;BME280;39611;46.062;8.950;2023-02-01T14:56:06;96682.72;;;10.79;21.17
52441;BME280;39611;46.062;8.950;2023-02-01T14:58:42;96694.66;;;10.71;21.26
52441;BME280;39611;46.062;8.950;2023-02-01T15:01:28;96695.09;;;10.89;20.74
52441;BME280;39611;46.062;8.950;2023-02-01T15:06:39;96679.81;;;10.70;21.42
52441;BME280;39611;46.062;8.950;2023-02-01T15:12:27;96693.63;;;10.42;21.68
52441;BME280;39611;46.062;8.950;2023-02-01T15:15:24;96689.63;;;10.49;22.00
52441;BME280;39611;46.062;8.950;2023-02-01T15:20:23;96691.75;;;10.42;21.40
52441;BME280;39611;46.062;8.950;2023-02-01T15:25:23;96691.75;;;10.53;21.14
52441;BME280;39611;46.062;8.950;2023-02-01T15:27:50;96704.97;;;10.42;22.52
52441;BME280;39611;46.062;8.950;2023-02-01T15:30:19;96695.72;;;10.50;21.70
52441;BME280;39611;46.062;8.950;2023-02-01T15:32:47;96694.66;;;10.66;21.44
52441;BME280;39611;46.062;8.950;2023-02-01T15:35:37;96702.06;;;10.49;21.54
52441;BME280;39611;46.062;8.950;2023-02-01T15:43:24;96702.59;;;10.61;21.60
52441;BME280;39611;46.062;8.950;2023-02-01T15:45:51;96701.00;;;10.40;21.75
52441;BME280;39611;46.062;8.950;2023-02-01T15:48:26;96698.34;;;10.60;20.84
52441;BME280;39611;46.062;8.950;2023-02-01T15:50:53;96706.84;;;10.47;20.72
52441;BME280;39611;46.062;8.950;2023-02-01T15:53:24;96713.44;;;10.34;21.83
52441;BME280;39611;46.062;8.950;2023-02-01T15:55:55;96711.56;;;10.19;22.27
52441;BME280;39611;46.062;8.950;2023-02-01T15:58:24;96714.75;;;10.16;21.77
52441;BME280;39611;46.062;8.950;2023-02-01T16:03:40;96711.81;;;10.02;21.78
52441;BME280;39611;46.062;8.950;2023-02-01T16:06:26;96712.38;;;10.04;21.75
52441;BME280;39611;46.062;8.950;2023-02-01T16:11:32;96722.66;;;10.01;22.03
52441;BME280;39611;46.062;8.950;2023-02-01T16:14:00;96726.09;;;10.17;21.07
52441;BME280;39611;46.062;8.950;2023-02-01T16:16:28;96729.78;;;10.00;21.63
52441;BME280;39611;46.062;8.950;2023-02-01T16:18:55;96733.75;;;9.93;21.87